This is the latest recevied weather packets stored in our database for station/object WC4PEM-12. If no packets are shown the sender has not sent any weather packets the latest 10 day(s).
| Time | Temp. | Humidity | Pressure | Rain* | Wind** | Luminosity | Snow |
|---|---|---|---|---|---|---|---|
| 1777738385 | 30.56° C | 61% | 1011.2 hPa | 0 mm | - | - | - |
| 1777738084 | 30.56° C | 63% | 1011.3 hPa | 0 mm | - | - | - |
| 1777737921 | 30° C | 65% | 1011.2 hPa | 0 mm | - | - | - |
| 1777737785 | 30° C | 65% | 1011.2 hPa | 0 mm | - | - | - |
| 1777737485 | 29.44° C | 66% | 1011 hPa | 0 mm | - | - | - |
| 1777737227 | 29.44° C | 66% | 1011.4 hPa | 0 mm | - | - | - |
| 1777737185 | 29.44° C | 66% | 1011.4 hPa | 0 mm | - | - | - |
| 1777736885 | 29.44° C | 66% | 1011.5 hPa | 0 mm | - | - | - |
| 1777736756 | 30° C | 65% | 1011.3 hPa | 0 mm | - | - | - |
| 1777736585 | 30° C | 65% | 1011.3 hPa | 0 mm | - | - | - |
| 1777736285 | 30° C | 65% | 1011.2 hPa | 0 mm | - | - | - |
| 1777735985 | 30° C | 64% | 1011.3 hPa | 0 mm | - | - | - |
| 1777735685 | 30° C | 65% | 1011.3 hPa | 0 mm | - | - | - |
| 1777735385 | 29.44° C | 65% | 1011.2 hPa | 0 mm | - | - | - |
| 1777735307 | 29.44° C | 66% | 1011 hPa | 0 mm | - | - | - |
| 1777735085 | 29.44° C | 66% | 1011 hPa | 0 mm | - | - | - |
| 1777734827 | 28.89° C | 67% | 1011.5 hPa | 0 mm | - | - | - |
| 1777734785 | 28.89° C | 66% | 1011.4 hPa | 0 mm | - | - | - |
| 1777734485 | 28.89° C | 67% | 1011.5 hPa | 0 mm | - | - | - |
| 1777734185 | 28.89° C | 67% | 1011.3 hPa | 0 mm | - | - | - |
| 1777734140 | 27.78° C | 71% | 1011.2 hPa | 0 mm | - | - | - |
| 1777734109 | 28.89° C | 68% | 1011.4 hPa | 0 mm | - | - | - |
| 1777733885 | 28.89° C | 68% | 1011.4 hPa | 0 mm | - | - | - |
| 1777733858 | 28.33° C | 69% | 1011.3 hPa | 0 mm | - | - | - |
| 1777733585 | 28.33° C | 69% | 1011.3 hPa | 0 mm | - | - | - |
* Rain latest hour (hover to see other rain measurements)
** Current wind speed in m/s (hover to see current wind gust speed)